Airfield :
LOGIN :

Register | Disclaimer

   EN    FR    IT 

 










Legend :    VFR   Marginal VFR   IFR   Intensive IFR   Very Intensive IFR
Visi :
Ceiling :
>= 8 km
>= 3000ft
5 to 8 km
1000 to 3000 ft
1500m to 5 km
500 to 1000 ft
800 to 1500m
200 to 500 ft
< 800m
< 200 ft
Symbols :   Thunderstorms  Fog  Heavy snow  Heavy precipitations  Wind > 20 kt
SIGMETs :     Misc.  Thunderstorms  Icing  Turbulence  Mountain Waves  Volcanic Ashes







- Airport Elevation : 335 ft
- IATA code : BEG


LYBE - Belgrade Nikola Tesla

CURRENT METAR :
  • 191500Z 27003KT 230V300 CAVOK 16/M01 Q1019 NOSIG

EXPIRED METARs :
  • 191430Z 24003KT 210V270 CAVOK 16/M01 Q1019 NOSIG
  • 191400Z 28003KT 240V310 CAVOK 16/M02 Q1019 NOSIG
  • 191330Z VRB02KT CAVOK 16/M01 Q1019 NOSIG
  • 191300Z VRB01KT CAVOK 15/01 Q1019 NOSIG
  • 191230Z VRB03KT CAVOK 15/02 Q1019 NOSIG

TAF TAF LYBE
Valid from the 19 at 12:00 until the 20 at 12:00 UTC


191100Z 1912/2012 VRB02KT CAVOK TX13/1913Z TNM02/2003Z
BECMG 1920/1922 3000 BR
TEMPO 2001/2004 0600 FZFG
BECMG 2006/2008 32010KT CAVOK
No reported NOTAMs for that airfield.



MET'MAP, your aeronautical weather chart ! - Copyright ORBIFLY December 2007 - Disclaimer

ORBIFLY MET'MAP TEAM :

Programming & Development : Alexandra Zaïnal
Concept & Development : Baudouin d'Aumeries
Co-Development & Prog : Marc-Olivier Méhu
Technical & hardware support : Manuel Goepfert

Contact : metmap@orbifly.com




SOURCES & CREDITS :

   NOAA